Time;durP1;ratioP1;P1;durP2;ratioP2;P2;SDS_P1;SDS_P2;PMS_P1;PMS_P2;Temp;Humidity;BMP_temperature;BMP_pressure;BME280_temperature;BME280_humidity;BME280_pressure;Samples;Min_cycle;Max_cycle;Signal;HPM_P1;HPM_P2
2022/03/26 00:02:13;;;;;;;31.70;17.80;;;4.50;99.90;;;;;;4978292;28;20661;-80
2022/03/26 00:04:38;;;;;;;28.00;17.23;;;4.40;99.90;;;;;;4960222;28;20181;-79
2022/03/26 00:07:04;;;;;;;33.83;18.13;;;4.50;99.90;;;;;;4960077;28;20212;-79
2022/03/26 00:09:30;;;;;;;31.03;18.53;;;4.40;99.90;;;;;;4960634;28;20185;-78
2022/03/26 00:11:56;;;;;;;29.83;17.23;;;4.40;99.90;;;;;;4959235;28;20556;-79
2022/03/26 00:14:22;;;;;;;27.03;16.50;;;4.40;99.90;;;;;;4961372;28;20231;-78
2022/03/26 00:16:47;;;;;;;28.10;17.27;;;4.40;99.90;;;;;;4979336;28;20209;-80
2022/03/26 00:19:14;;;;;;;30.10;18.63;;;4.50;99.90;;;;;;4963040;28;20227;-79
2022/03/26 00:21:40;;;;;;;28.93;17.10;;;4.50;99.90;;;;;;4960275;28;20196;-80
2022/03/26 00:24:06;;;;;;;30.87;18.73;;;4.50;99.90;;;;;;4960999;28;20186;-79
2022/03/26 00:26:32;;;;;;;28.80;18.10;;;4.50;99.90;;;;;;4977121;28;20192;-79
2022/03/26 00:28:58;;;;;;;29.37;16.93;;;4.40;99.90;;;;;;4960771;28;20199;-80
2022/03/26 00:31:23;;;;;;;28.57;16.27;;;4.40;99.90;;;;;;4960648;28;20208;-80
2022/03/26 00:33:49;;;;;;;26.93;17.03;;;4.30;99.90;;;;;;4960234;28;20683;-79
2022/03/26 00:36:15;;;;;;;31.70;18.10;;;4.30;99.90;;;;;;4960325;28;20220;-78
2022/03/26 00:38:40;;;;;;;29.47;18.30;;;4.30;99.90;;;;;;4978856;28;20525;-80
2022/03/26 00:41:06;;;;;;;31.67;17.90;;;4.40;99.90;;;;;;4978240;28;20188;-78
2022/03/26 00:43:31;;;;;;;33.20;18.77;;;4.20;99.90;;;;;;4977700;28;20188;-80
2022/03/26 00:45:57;;;;;;;31.10;18.57;;;4.10;99.90;;;;;;4960736;28;20192;-80
2022/03/26 00:48:23;;;;;;;32.73;18.63;;;4.00;99.90;;;;;;4961568;28;20189;-79
2022/03/26 00:50:49;;;;;;;33.03;17.83;;;3.90;99.90;;;;;;4960520;28;20196;-78
2022/03/26 00:53:14;;;;;;;33.53;18.60;;;3.90;99.90;;;;;;4978089;28;20354;-79
2022/03/26 00:55:40;;;;;;;29.93;17.97;;;3.80;99.90;;;;;;4977901;28;20180;-80
2022/03/26 00:58:05;;;;;;;29.30;17.80;;;3.70;99.90;;;;;;4960090;28;20237;-80
2022/03/26 01:00:31;;;;;;;29.53;17.30;;;3.70;99.90;;;;;;4959127;28;20269;-79
2022/03/26 01:02:57;;;;;;;27.47;17.20;;;3.60;99.90;;;;;;4976213;28;20208;-79
2022/03/26 01:05:23;;;;;;;27.40;16.90;;;3.60;99.90;;;;;;4960296;28;20197;-80
2022/03/26 01:07:48;;;;;;;31.97;17.77;;;3.60;99.90;;;;;;4977639;28;20268;-79
2022/03/26 01:10:14;;;;;;;27.67;16.67;;;3.60;99.90;;;;;;4960502;28;20184;-79
2022/03/26 01:12:39;;;;;;;30.33;16.90;;;3.50;99.90;;;;;;4959500;28;20200;-79
2022/03/26 01:15:06;;;;;;;26.10;16.90;;;3.50;99.90;;;;;;4960845;28;20177;-79
2022/03/26 01:17:32;;;;;;;30.23;17.13;;;3.40;99.90;;;;;;5044415;28;20196;-79
2022/03/26 01:19:59;;;;;;;29.57;16.83;;;3.40;99.90;;;;;;4960077;28;20184;-79
2022/03/26 01:22:25;;;;;;;33.93;17.43;;;3.40;99.90;;;;;;4959887;28;20712;-79
2022/03/26 01:24:51;;;;;;;27.10;15.93;;;3.30;99.90;;;;;;4959588;28;20222;-80
2022/03/26 01:27:17;;;;;;;27.17;15.90;;;3.40;99.90;;;;;;4959023;28;20284;-79
2022/03/26 01:29:43;;;;;;;25.27;16.23;;;3.40;99.90;;;;;;4976432;28;20183;-79
2022/03/26 01:32:09;;;;;;;25.40;15.43;;;3.40;99.90;;;;;;4957672;28;20200;-79
2022/03/26 01:34:35;;;;;;;29.87;16.23;;;3.50;99.90;;;;;;4975848;28;20201;-79
2022/03/26 01:37:03;;;;;;;27.33;15.67;;;3.40;99.90;;;;;;4957580;28;20180;-81
2022/03/26 01:39:29;;;;;;;28.67;15.80;;;3.40;99.90;;;;;;4967453;28;20181;-79
2022/03/26 01:42:03;;;;;;;27.87;15.87;;;3.50;99.90;;;;;;4976039;28;20559;-79
2022/03/26 01:44:29;;;;;;;25.80;15.30;;;3.60;99.90;;;;;;4967646;28;20180;-79
2022/03/26 01:46:55;;;;;;;24.43;14.30;;;3.50;99.90;;;;;;4959283;28;20189;-79
2022/03/26 01:49:21;;;;;;;29.93;15.97;;;3.50;99.90;;;;;;4959358;28;20653;-80
2022/03/26 01:51:47;;;;;;;27.17;15.00;;;3.50;99.90;;;;;;4975694;28;20219;-79
2022/03/26 01:54:16;;;;;;;23.73;15.67;;;3.50;99.90;;;;;;4959855;28;20239;-78
2022/03/26 01:56:42;;;;;;;25.37;14.47;;;3.40;99.90;;;;;;4959006;28;20187;-80
2022/03/26 01:59:10;;;;;;;28.10;14.87;;;3.30;99.90;;;;;;4976386;28;20193;-79
2022/03/26 02:01:37;;;;;;;25.57;15.40;;;3.20;99.90;;;;;;4966039;28;20291;-78
2022/03/26 02:04:04;;;;;;;23.50;14.97;;;3.30;99.90;;;;;;4977254;28;20358;-79
2022/03/26 02:06:31;;;;;;;24.23;14.30;;;3.30;99.90;;;;;;4958973;28;20188;-79
2022/03/26 02:09:01;;;;;;;29.03;15.13;;;3.20;99.90;;;;;;4966268;28;20277;-79
2022/03/26 02:11:30;;;;;;;26.47;15.07;;;3.20;99.90;;;;;;4965809;28;20583;-79
2022/03/26 02:13:57;;;;;;;30.30;15.57;;;3.20;99.90;;;;;;4957775;28;20591;-79
2022/03/26 02:16:24;;;;;;;31.27;15.73;;;3.10;99.90;;;;;;4973665;28;20207;-79
2022/03/26 02:18:51;;;;;;;27.60;15.30;;;3.10;99.90;;;;;;4974982;28;20184;-79
2022/03/26 02:21:18;;;;;;;28.53;14.87;;;3.00;99.90;;;;;;4973141;28;20192;-80
2022/03/26 02:23:44;;;;;;;26.47;15.40;;;3.00;99.90;;;;;;4965418;28;20271;-78
2022/03/26 02:26:09;;;;;;;24.73;15.07;;;3.00;99.90;;;;;;4956820;28;20197;-79
2022/03/26 02:28:36;;;;;;;24.40;14.97;;;3.00;99.90;;;;;;4973922;28;20254;-80
2022/03/26 02:31:01;;;;;;;26.37;14.37;;;3.00;99.90;;;;;;4956567;28;20968;-80
2022/03/26 02:33:27;;;;;;;29.43;15.37;;;3.00;99.90;;;;;;4957425;28;20228;-80
2022/03/26 02:35:52;;;;;;;26.53;14.90;;;2.90;99.90;;;;;;4956746;28;20275;-79
2022/03/26 02:38:18;;;;;;;26.63;15.20;;;2.90;99.90;;;;;;4959301;28;20207;-79
2022/03/26 02:40:45;;;;;;;24.20;14.27;;;2.80;99.90;;;;;;4958355;28;20673;-79
2022/03/26 02:43:12;;;;;;;27.27;15.20;;;2.80;99.90;;;;;;4976226;28;20216;-80
2022/03/26 02:45:43;;;;;;;25.77;15.27;;;2.80;99.90;;;;;;4959007;28;20188;-79
2022/03/26 02:48:12;;;;;;;26.70;14.10;;;2.90;99.90;;;;;;4975871;28;20185;-79
2022/03/26 02:50:41;;;;;;;27.57;14.43;;;3.00;99.90;;;;;;4956328;28;20193;-79
2022/03/26 02:53:06;;;;;;;27.93;14.20;;;2.80;99.90;;;;;;4975529;28;20220;-78
2022/03/26 02:55:32;;;;;;;29.57;15.37;;;2.70;99.90;;;;;;4975132;28;20195;-80
2022/03/26 02:57:57;;;;;;;26.93;14.43;;;2.60;99.90;;;;;;4959436;28;20252;-80
2022/03/26 03:00:23;;;;;;;24.60;14.50;;;2.50;99.90;;;;;;4958339;28;20188;-79
2022/03/26 03:02:49;;;;;;;25.87;14.77;;;2.50;99.90;;;;;;4975851;28;20215;-78
2022/03/26 03:05:14;;;;;;;24.90;14.73;;;2.50;99.90;;;;;;4956975;28;20185;-78
2022/03/26 03:07:40;;;;;;;27.50;14.47;;;2.40;99.90;;;;;;4957993;28;20201;-77
2022/03/26 03:10:07;;;;;;;26.13;13.50;;;2.40;99.90;;;;;;4958015;28;20188;-78
2022/03/26 03:12:33;;;;;;;25.20;13.70;;;2.50;99.90;;;;;;4975342;28;20212;-79
2022/03/26 03:14:59;;;;;;;25.60;14.17;;;2.40;99.90;;;;;;4974385;28;20188;-78
2022/03/26 03:17:25;;;;;;;26.97;14.83;;;2.40;99.90;;;;;;4976446;28;20184;-78
2022/03/26 03:19:50;;;;;;;27.30;15.13;;;2.40;99.90;;;;;;4959435;28;20543;-78
2022/03/26 03:22:16;;;;;;;23.50;13.53;;;2.40;99.90;;;;;;4957560;28;20213;-80
2022/03/26 03:24:42;;;;;;;25.70;13.47;;;2.40;99.90;;;;;;4958413;28;20188;-78
2022/03/26 03:27:08;;;;;;;27.10;13.33;;;2.40;99.90;;;;;;4959491;28;20191;-78
2022/03/26 03:29:34;;;;;;;27.63;14.07;;;2.30;99.90;;;;;;4957973;28;20187;-80
2022/03/26 03:31:59;;;;;;;28.50;15.17;;;2.30;99.90;;;;;;4975193;28;20248;-79
2022/03/26 03:34:25;;;;;;;24.07;13.63;;;2.30;99.90;;;;;;4962083;28;20239;-78
2022/03/26 03:36:51;;;;;;;23.13;13.60;;;2.30;99.90;;;;;;4975582;28;20455;-79
2022/03/26 03:39:16;;;;;;;26.63;13.80;;;2.30;99.90;;;;;;4957892;28;20189;-84
2022/03/26 03:41:42;;;;;;;26.07;14.13;;;2.30;99.90;;;;;;4959962;28;20208;-78
2022/03/26 03:44:08;;;;;;;23.47;13.57;;;2.40;99.90;;;;;;4958041;28;20212;-78
2022/03/26 03:46:34;;;;;;;28.13;13.03;;;2.40;99.90;;;;;;4956745;28;20180;-78
2022/03/26 03:49:00;;;;;;;23.03;14.10;;;2.30;99.90;;;;;;4958240;28;20563;-79
2022/03/26 03:51:26;;;;;;;22.70;14.00;;;2.40;99.90;;;;;;4973832;28;20291;-78
2022/03/26 03:53:52;;;;;;;25.00;14.27;;;2.50;99.90;;;;;;4957463;28;20220;-78
2022/03/26 03:56:17;;;;;;;25.33;15.13;;;2.40;99.90;;;;;;4957501;28;20185;-79
2022/03/26 03:58:43;;;;;;;28.20;14.03;;;2.60;99.90;;;;;;4972932;28;20184;-78
2022/03/26 04:01:09;;;;;;;27.77;13.93;;;2.60;99.90;;;;;;4955884;28;20217;-79
2022/03/26 04:03:35;;;;;;;27.40;14.63;;;2.50;99.90;;;;;;4974968;28;20185;-78
2022/03/26 04:06:01;;;;;;;29.57;14.03;;;2.40;99.90;;;;;;4976235;28;20199;-81
2022/03/26 04:08:28;;;;;;;28.87;14.87;;;2.30;99.90;;;;;;4975454;28;20185;-79
2022/03/26 04:10:53;;;;;;;28.47;15.37;;;2.30;99.90;;;;;;4958060;28;20227;-79
2022/03/26 04:13:19;;;;;;;28.10;14.17;;;2.10;99.90;;;;;;4959145;28;20639;-80
2022/03/26 04:15:45;;;;;;;28.40;14.47;;;2.20;99.90;;;;;;4973416;28;20185;-79
2022/03/26 04:18:10;;;;;;;23.43;13.60;;;2.30;99.90;;;;;;4959086;28;20611;-78
2022/03/26 04:20:36;;;;;;;28.20;14.30;;;2.30;99.90;;;;;;4956486;28;20726;-78
2022/03/26 04:23:02;;;;;;;26.83;14.47;;;2.40;99.90;;;;;;4958301;28;20220;-79
2022/03/26 04:25:27;;;;;;;29.17;15.10;;;2.40;99.90;;;;;;4975034;28;20184;-78
2022/03/26 04:27:53;;;;;;;26.23;13.47;;;2.50;99.90;;;;;;4955784;28;20238;-79
2022/03/26 04:30:20;;;;;;;25.70;14.17;;;2.40;99.90;;;;;;4955987;28;20197;-78
2022/03/26 04:32:46;;;;;;;22.57;14.90;;;2.40;99.90;;;;;;4974693;28;20284;-80
2022/03/26 04:35:12;;;;;;;27.80;15.13;;;2.40;99.90;;;;;;4960097;28;20276;-78
2022/03/26 04:37:37;;;;;;;23.33;13.90;;;2.50;99.90;;;;;;4976457;28;20195;-80
2022/03/26 04:40:05;;;;;;;27.53;14.50;;;2.40;99.90;;;;;;4960208;28;20677;-78
2022/03/26 04:42:31;;;;;;;28.27;14.90;;;2.30;99.90;;;;;;4977150;28;20203;-80
2022/03/26 04:44:56;;;;;;;23.60;14.30;;;2.30;99.90;;;;;;4960570;28;20185;-80
2022/03/26 04:47:22;;;;;;;27.30;14.97;;;2.40;99.90;;;;;;4978465;28;20645;-78
2022/03/26 04:49:48;;;;;;;28.47;14.37;;;2.40;99.90;;;;;;4960848;28;20541;-79
2022/03/26 04:52:13;;;;;;;32.17;15.43;;;2.40;99.90;;;;;;4961051;28;20266;-78
2022/03/26 04:54:41;;;;;;;31.17;14.63;;;2.50;99.90;;;;;;4975560;28;20208;-78
2022/03/26 04:57:07;;;;;;;29.07;15.03;;;2.50;99.90;;;;;;4959326;28;20220;-79
2022/03/26 04:59:32;;;;;;;32.23;15.73;;;2.50;99.90;;;;;;4967825;28;20212;-78
2022/03/26 05:01:58;;;;;;;29.73;15.10;;;2.40;99.90;;;;;;4960224;28;20211;-79
2022/03/26 05:04:23;;;;;;;30.30;16.70;;;2.40;99.90;;;;;;4960481;28;20196;-79
2022/03/26 05:06:49;;;;;;;32.93;16.60;;;2.40;99.90;;;;;;4959018;28;20192;-79
2022/03/26 05:09:15;;;;;;;30.67;16.23;;;2.50;99.90;;;;;;4977264;28;20725;-78
2022/03/26 05:11:40;;;;;;;30.27;16.40;;;2.50;99.90;;;;;;4975857;28;20266;-78
2022/03/26 05:14:06;;;;;;;33.07;16.90;;;2.50;99.90;;;;;;4959362;28;20674;-79
2022/03/26 05:16:32;;;;;;;29.20;16.60;;;2.50;99.90;;;;;;4967861;28;20184;-79
2022/03/26 05:18:57;;;;;;;35.87;16.43;;;2.60;99.90;;;;;;4960242;28;20646;-78
2022/03/26 05:21:23;;;;;;;34.93;16.07;;;2.70;99.90;;;;;;4960182;28;20351;-77
2022/03/26 05:23:49;;;;;;;29.27;15.97;;;2.80;99.90;;;;;;4977850;28;20188;-78
2022/03/26 05:26:15;;;;;;;30.97;16.70;;;2.80;99.90;;;;;;4960312;28;20551;-79
2022/03/26 05:28:40;;;;;;;31.33;16.90;;;2.80;99.90;;;;;;4960537;28;20184;-80
2022/03/26 05:31:06;;;;;;;32.87;15.83;;;2.80;99.90;;;;;;4959900;28;20185;-78
2022/03/26 05:33:35;;;;;;;32.00;15.47;;;2.80;99.90;;;;;;4964760;28;20219;-78
2022/03/26 05:36:01;;;;;;;29.23;16.27;;;2.80;99.90;;;;;;4964881;28;20193;-80
2022/03/26 05:38:26;;;;;;;28.67;16.13;;;2.90;99.90;;;;;;4961954;28;20189;-78
2022/03/26 05:40:52;;;;;;;30.00;15.50;;;2.90;99.90;;;;;;4976470;28;20267;-78
2022/03/26 05:43:17;;;;;;;28.77;14.70;;;3.00;99.90;;;;;;4959703;28;20220;-80
2022/03/26 05:45:44;;;;;;;29.13;15.77;;;3.00;99.90;;;;;;4959537;28;20191;-79
2022/03/26 05:48:09;;;;;;;32.93;14.97;;;3.00;99.90;;;;;;4974049;28;20658;-79
2022/03/26 05:50:35;;;;;;;30.17;15.03;;;3.10;99.90;;;;;;4957823;28;20185;-79
2022/03/26 05:53:02;;;;;;;26.60;13.60;;;3.10;99.90;;;;;;4958410;28;20300;-78
2022/03/26 05:55:28;;;;;;;27.87;14.07;;;3.20;99.90;;;;;;4959629;28;20968;-78
2022/03/26 05:57:53;;;;;;;26.13;13.80;;;3.20;99.90;;;;;;4958820;28;20192;-79
2022/03/26 06:00:19;;;;;;;27.67;15.47;;;3.30;99.90;;;;;;4959621;28;20188;-79
2022/03/26 06:02:46;;;;;;;33.80;15.47;;;3.30;99.90;;;;;;4959586;28;20693;-79
2022/03/26 06:05:12;;;;;;;31.43;17.20;;;3.40;99.90;;;;;;4956931;28;20189;-78
2022/03/26 06:07:38;;;;;;;30.20;16.53;;;3.70;99.90;;;;;;4959085;28;20192;-77
2022/03/26 06:10:04;;;;;;;28.20;15.80;;;3.80;99.90;;;;;;4958702;28;20185;-80
2022/03/26 06:12:29;;;;;;;27.70;16.00;;;3.80;99.90;;;;;;4975820;28;20321;-77
2022/03/26 06:14:55;;;;;;;29.33;15.90;;;3.80;99.90;;;;;;4959145;28;20581;-78
2022/03/26 06:17:22;;;;;;;27.83;15.47;;;3.90;99.90;;;;;;4958445;28;20269;-78
2022/03/26 06:19:48;;;;;;;28.13;15.57;;;3.90;99.90;;;;;;4957790;28;20651;-79
2022/03/26 06:22:13;;;;;;;30.90;15.43;;;4.10;99.90;;;;;;4973667;28;20207;-79
2022/03/26 06:24:39;;;;;;;30.17;15.40;;;4.20;99.90;;;;;;4958426;28;20204;-78
2022/03/26 06:27:06;;;;;;;33.37;17.47;;;4.30;99.90;;;;;;4961483;28;20189;-80
2022/03/26 06:29:33;;;;;;;29.57;16.07;;;4.50;99.90;;;;;;4974068;28;20177;-78
2022/03/26 06:32:01;;;;;;;31.73;17.50;;;4.90;99.90;;;;;;4956009;28;20204;-78
2022/03/26 06:34:27;;;;;;;34.50;16.27;;;5.20;99.90;;;;;;4958031;28;20227;-81
2022/03/26 06:36:54;;;;;;;31.90;16.47;;;5.30;99.90;;;;;;4958741;28;20664;-80
2022/03/26 06:39:19;;;;;;;34.17;16.37;;;5.30;99.90;;;;;;4977638;28;20208;-80
2022/03/26 06:41:45;;;;;;;32.13;16.83;;;5.40;99.90;;;;;;4967326;28;20288;-80
2022/03/26 06:44:12;;;;;;;32.87;15.90;;;5.50;99.90;;;;;;4959697;28;20279;-81
2022/03/26 06:46:39;;;;;;;33.17;17.67;;;5.70;99.90;;;;;;4969422;28;20548;-79
2022/03/26 06:49:06;;;;;;;30.87;16.37;;;5.80;99.90;;;;;;4959064;28;20195;-79
2022/03/26 06:51:31;;;;;;;33.00;15.93;;;6.00;99.90;;;;;;4977261;28;20215;-79
2022/03/26 06:53:58;;;;;;;26.83;15.67;;;6.20;99.90;;;;;;4959273;28;20216;-78
2022/03/26 06:56:24;;;;;;;32.03;16.33;;;6.20;99.90;;;;;;4960163;28;20310;-79
2022/03/26 06:58:49;;;;;;;27.50;16.33;;;6.30;99.90;;;;;;4975178;28;20188;-79
2022/03/26 07:01:15;;;;;;;32.70;16.60;;;6.40;99.90;;;;;;4958617;28;21064;-80
2022/03/26 07:03:40;;;;;;;28.70;16.57;;;6.60;99.90;;;;;;4956938;28;20176;-79
2022/03/26 07:06:06;;;;;;;28.10;17.07;;;6.70;99.90;;;;;;4973138;28;20594;-79
2022/03/26 07:08:32;;;;;;;34.07;16.80;;;6.80;99.90;;;;;;4956636;28;20283;-78
2022/03/26 07:10:59;;;;;;;33.93;17.43;;;6.90;99.90;;;;;;4957893;28;20208;-79
2022/03/26 07:13:25;;;;;;;27.87;15.83;;;7.10;99.90;;;;;;4956285;28;20825;-78
2022/03/26 07:15:50;;;;;;;29.53;16.57;;;7.20;99.90;;;;;;4956509;28;20192;-79
2022/03/26 07:18:16;;;;;;;28.50;16.00;;;7.30;99.90;;;;;;4956758;28;20653;-79
2022/03/26 07:20:42;;;;;;;28.77;15.00;;;7.40;99.90;;;;;;4975363;28;20185;-80
2022/03/26 07:23:07;;;;;;;31.10;16.10;;;7.50;99.90;;;;;;4960798;28;20233;-78
2022/03/26 07:25:33;;;;;;;35.17;16.97;;;7.70;99.90;;;;;;4957457;28;20321;-79
2022/03/26 07:27:59;;;;;;;30.40;16.03;;;7.90;99.90;;;;;;4967982;28;20192;-80
2022/03/26 07:30:25;;;;;;;34.40;17.47;;;8.10;99.90;;;;;;4958909;28;20865;-81
2022/03/26 07:32:51;;;;;;;34.23;18.00;;;8.20;99.90;;;;;;4977097;28;20212;-78
2022/03/26 07:35:16;;;;;;;34.43;18.13;;;8.40;99.90;;;;;;4960216;28;20560;-79
2022/03/26 07:37:43;;;;;;;32.53;17.87;;;8.50;99.90;;;;;;4958949;28;20673;-83
2022/03/26 07:40:10;;;;;;;33.87;18.20;;;8.70;99.90;;;;;;4972426;28;20189;-82
2022/03/26 07:42:36;;;;;;;35.60;19.00;;;9.00;99.90;;;;;;4977805;28;20208;-79
2022/03/26 07:45:03;;;;;;;36.93;18.73;;;9.10;99.90;;;;;;4964567;28;20200;-79
2022/03/26 07:47:29;;;;;;;33.67;17.13;;;9.40;99.90;;;;;;4975090;28;20189;-80
2022/03/26 07:49:55;;;;;;;37.90;19.30;;;9.60;99.90;;;;;;4958077;28;20204;-80
2022/03/26 07:52:21;;;;;;;35.90;19.03;;;9.80;99.90;;;;;;4955318;28;20244;-79
2022/03/26 07:54:47;;;;;;;39.60;19.03;;;9.80;99.90;;;;;;4957868;28;20686;-81
2022/03/26 07:57:12;;;;;;;41.00;19.70;;;9.90;99.90;;;;;;4958537;28;20200;-81
2022/03/26 07:59:38;;;;;;;37.50;20.00;;;10.00;99.90;;;;;;4975366;28;20180;-82
2022/03/26 08:02:04;;;;;;;37.73;18.27;;;10.30;99.90;;;;;;4973163;28;20197;-82
2022/03/26 08:04:29;;;;;;;39.07;19.17;;;10.30;99.90;;;;;;4949691;28;20282;-79
2022/03/26 08:06:55;;;;;;;39.97;20.07;;;10.50;99.90;;;;;;4949399;28;20257;-79
2022/03/26 08:09:21;;;;;;;36.83;19.77;;;10.60;99.90;;;;;;4967764;28;20183;-78
2022/03/26 08:11:46;;;;;;;40.37;20.13;;;10.70;99.90;;;;;;4965387;28;20197;-80
2022/03/26 08:14:12;;;;;;;41.93;20.77;;;10.90;99.90;;;;;;4956054;28;20622;-80
2022/03/26 08:16:38;;;;;;;35.67;18.73;;;11.10;99.90;;;;;;4955036;28;20224;-80
2022/03/26 08:19:04;;;;;;;38.30;19.63;;;11.30;99.90;;;;;;4974920;28;20608;-79
2022/03/26 08:21:32;;;;;;;39.57;19.27;;;11.50;99.90;;;;;;4953137;28;20197;-79
2022/03/26 08:23:58;;;;;;;38.33;20.23;;;11.40;99.90;;;;;;4955066;28;20642;-80
2022/03/26 08:26:26;;;;;;;35.93;18.60;;;11.50;99.90;;;;;;4955194;28;20199;-80
2022/03/26 08:28:53;;;;;;;36.40;18.40;;;11.60;99.90;;;;;;4957041;28;20583;-80
2022/03/26 08:31:21;;;;;;;30.47;17.37;;;11.70;99.90;;;;;;4974426;28;20199;-80
2022/03/26 08:33:46;;;;;;;32.90;17.90;;;11.80;99.90;;;;;;4951911;28;20205;-79
2022/03/26 08:36:13;;;;;;;31.13;17.43;;;12.00;99.90;;;;;;4968004;28;20207;-78
2022/03/26 08:38:39;;;;;;;36.60;18.23;;;12.00;99.90;;;;;;4952124;28;20185;-80
2022/03/26 08:41:05;;;;;;;34.27;18.10;;;12.10;99.90;;;;;;4972271;28;20985;-79
2022/03/26 08:43:31;;;;;;;36.53;18.27;;;12.20;99.90;;;;;;4968694;28;20188;-80
2022/03/26 08:45:57;;;;;;;31.75;16.92;;;12.30;99.90;;;;;;4971022;28;20188;-79
2022/03/26 08:48:23;;;;;;;35.87;19.50;;;12.50;99.90;;;;;;4961375;28;20199;-80
2022/03/26 08:50:49;;;;;;;27.47;15.57;;;12.50;99.90;;;;;;4951185;28;20274;-80
2022/03/26 08:53:14;;;;;;;26.48;14.88;;;12.40;99.90;;;;;;4954402;28;20236;-81
2022/03/26 08:55:40;;;;;;;26.20;14.77;;;12.40;99.90;;;;;;4980106;28;20181;-79
2022/03/26 08:58:07;;;;;;;26.07;16.20;;;12.50;99.90;;;;;;4972679;28;20272;-79
2022/03/26 09:00:34;;;;;;;24.45;15.30;;;12.60;99.90;;;;;;4975544;28;20193;-80
2022/03/26 09:03:01;;;;;;;24.23;15.53;;;12.70;99.90;;;;;;4952718;28;20204;-78
2022/03/26 09:05:27;;;;;;;27.77;15.90;;;12.70;99.90;;;;;;4962956;28;20181;-79
2022/03/26 09:07:53;;;;;;;28.52;15.85;;;12.80;99.90;;;;;;4954269;28;20191;-79
2022/03/26 09:10:19;;;;;;;28.33;15.07;;;12.90;99.90;;;;;;4949539;28;20280;-79
2022/03/26 09:12:44;;;;;;;28.35;15.50;;;13.10;99.90;;;;;;4952941;28;20346;-78
2022/03/26 09:15:10;;;;;;;24.58;14.18;;;13.20;99.90;;;;;;4972860;28;20283;-79
2022/03/26 09:17:36;;;;;;;22.65;15.13;;;13.20;99.90;;;;;;4970158;28;20176;-79
2022/03/26 09:20:03;;;;;;;23.75;15.50;;;13.20;99.90;;;;;;4956840;28;20881;-79
2022/03/26 09:22:30;;;;;;;22.20;14.45;;;13.20;99.90;;;;;;4976411;28;20285;-78
2022/03/26 09:24:55;;;;;;;23.88;14.05;;;13.30;99.90;;;;;;4975197;28;20664;-78
2022/03/26 09:27:21;;;;;;;23.35;14.98;;;13.40;99.90;;;;;;4957797;28;20193;-78
2022/03/26 09:29:47;;;;;;;24.75;14.52;;;13.60;99.90;;;;;;4957891;28;20183;-78
2022/03/26 09:32:12;;;;;;;24.52;15.52;;;13.50;99.90;;;;;;4957585;28;20361;-78
2022/03/26 09:34:38;;;;;;;25.52;15.68;;;13.60;99.90;;;;;;4957681;28;20208;-78
2022/03/26 09:37:04;;;;;;;22.48;14.60;;;13.80;99.90;;;;;;4974850;28;20196;-78
2022/03/26 09:39:30;;;;;;;20.90;14.07;;;13.90;99.90;;;;;;4959133;28;20184;-78
2022/03/26 09:41:57;;;;;;;24.63;14.68;;;13.90;99.90;;;;;;4953608;28;20216;-78
2022/03/26 09:44:23;;;;;;;26.58;15.00;;;14.00;99.90;;;;;;4969981;28;20194;-78
2022/03/26 09:46:49;;;;;;;23.35;14.68;;;14.00;99.90;;;;;;4974818;28;20572;-77
2022/03/26 09:49:14;;;;;;;23.27;15.05;;;14.10;99.90;;;;;;4976159;28;20180;-77
2022/03/26 09:51:41;;;;;;;24.58;14.75;;;14.10;99.90;;;;;;4958204;28;20205;-78
2022/03/26 09:54:07;;;;;;;24.40;14.73;;;14.30;99.90;;;;;;4975675;28;20299;-77
2022/03/26 09:56:34;;;;;;;28.67;15.23;;;14.30;99.90;;;;;;4975275;28;20199;-79
2022/03/26 09:59:00;;;;;;;25.13;16.33;;;14.30;99.90;;;;;;4959577;28;20184;-78
2022/03/26 10:01:26;;;;;;;23.83;15.00;;;14.30;99.90;;;;;;4973846;28;20223;-78
2022/03/26 10:04:11;;;;;;;23.48;15.52;;;14.50;99.90;;;;;;4957678;28;20606;-78
2022/03/26 10:06:45;;;;;;;25.88;15.68;;;14.60;99.90;;;;;;4969421;28;20176;-80
2022/03/26 10:09:10;;;;;;;26.50;15.73;;;14.80;99.90;;;;;;4972466;28;20323;-79
2022/03/26 10:11:36;;;;;;;24.02;14.20;;;14.90;99.90;;;;;;4960780;28;20299;-79
2022/03/26 10:14:01;;;;;;;22.35;13.63;;;14.90;99.90;;;;;;4954368;28;20213;-78
2022/03/26 10:16:28;;;;;;;20.65;13.45;;;14.90;99.90;;;;;;4972572;28;20180;-79
2022/03/26 10:18:58;;;;;;;23.50;13.55;;;14.90;99.90;;;;;;4976205;28;20350;-78
2022/03/26 10:21:25;;;;;;;21.02;13.70;;;14.90;99.90;;;;;;4972743;28;20724;-83
2022/03/26 10:23:52;;;;;;;22.17;14.20;;;15.10;99.90;;;;;;4958191;28;20185;-80
2022/03/26 10:26:21;;;;;;;18.90;12.48;;;15.20;99.90;;;;;;4976787;28;20199;-80
2022/03/26 10:28:56;;;;;;;18.67;12.68;;;15.20;99.90;;;;;;4950998;28;20180;-80
2022/03/26 10:34:12;;;;;;;20.25;14.00;;;15.20;99.90;;;;;;4968890;28;20619;-80
2022/03/26 10:36:40;;;;;;;19.65;13.70;;;15.30;99.90;;;;;;4967629;28;20185;-80
2022/03/26 10:39:23;;;;;;;20.67;12.77;;;15.40;99.90;;;;;;4971405;28;20188;-80
2022/03/26 10:41:50;;;;;;;19.55;12.85;;;15.50;99.90;;;;;;4948761;28;20615;-80
2022/03/26 10:44:17;;;;;;;19.67;12.65;;;15.60;99.90;;;;;;4951921;28;20193;-81
2022/03/26 10:46:45;;;;;;;18.90;12.93;;;15.80;99.90;;;;;;4952698;28;20193;-80
2022/03/26 10:49:11;;;;;;;17.17;11.93;;;15.90;99.90;;;;;;4958059;28;20659;-80
2022/03/26 10:51:42;;;;;;;19.55;12.15;;;15.80;99.90;;;;;;4951852;28;20201;-80
2022/03/26 10:54:10;;;;;;;15.52;10.98;;;15.90;99.90;;;;;;4969415;28;20299;-80
2022/03/26 10:56:37;;;;;;;17.63;11.43;;;16.20;99.90;;;;;;4959017;28;20181;-80
2022/03/26 10:59:03;;;;;;;17.50;11.45;;;16.20;99.90;;;;;;4975847;28;20412;-81
2022/03/26 11:01:29;;;;;;;19.23;11.75;;;16.00;99.90;;;;;;4952238;28;20584;-82
2022/03/26 11:03:54;;;;;;;16.20;10.07;;;16.20;99.90;;;;;;4953065;28;20188;-80
2022/03/26 11:06:25;;;;;;;19.65;11.70;;;16.20;99.90;;;;;;4949319;28;20204;-80
2022/03/26 11:08:59;;;;;;;17.02;10.48;;;16.10;99.90;;;;;;4967099;28;20432;-81
2022/03/26 11:11:28;;;;;;;15.38;10.23;;;16.10;99.90;;;;;;4951824;28;20209;-80
2022/03/26 11:14:00;;;;;;;14.25;10.23;;;16.20;99.90;;;;;;4972097;28;20406;-80
2022/03/26 11:16:58;;;;;;;13.48;9.32;;;16.30;99.90;;;;;;4976344;28;20204;-80
2022/03/26 11:19:26;;;;;;;13.57;9.13;;;16.40;99.90;;;;;;4966949;28;20575;-81
2022/03/26 11:22:14;;;;;;;15.63;8.75;;;16.40;99.90;;;;;;4960954;28;20204;-80
2022/03/26 11:24:51;;;;;;;18.27;9.10;;;16.30;99.90;;;;;;4958146;28;20224;-80
2022/03/26 11:27:23;;;;;;;12.00;8.02;;;16.40;99.90;;;;;;4975970;28;20730;-84
2022/03/26 11:30:03;;;;;;;11.30;8.20;;;16.30;99.90;;;;;;4961648;28;20318;-82
2022/03/26 11:32:34;;;;;;;9.05;7.32;;;16.30;99.90;;;;;;4978175;28;20269;-81
2022/03/26 11:35:08;;;;;;;12.05;7.60;;;16.50;99.50;;;;;;4960228;28;20220;-85
2022/03/26 11:37:34;;;;;;;13.82;8.38;;;16.70;99.30;;;;;;4960277;28;20529;-82
2022/03/26 11:39:59;;;;;;;15.13;8.93;;;16.80;98.80;;;;;;4960018;28;20192;-85
2022/03/26 11:42:31;;;;;;;10.18;7.97;;;16.70;99.20;;;;;;4960864;28;20219;-82
2022/03/26 11:50:46;;;;;;;13.00;9.00;;;16.80;98.40;;;;;;4976572;28;20238;-83
2022/03/26 11:53:33;;;;;;;12.52;8.75;;;16.70;98.50;;;;;;4958894;28;20211;-82
2022/03/26 11:56:19;;;;;;;13.10;8.75;;;16.90;98.60;;;;;;4948293;28;20187;-85
2022/03/26 11:58:44;;;;;;;12.88;8.30;;;16.90;98.50;;;;;;4958927;28;20211;-84
2022/03/26 12:01:15;;;;;;;10.57;8.02;;;17.00;98.60;;;;;;4959301;28;20213;-83
2022/03/26 12:03:42;;;;;;;13.82;8.02;;;17.30;98.20;;;;;;4960955;28;20180;-83
2022/03/26 12:08:57;;;;;;;12.57;7.32;;;17.60;97.20;;;;;;4976598;28;20188;-85
2022/03/26 12:11:27;;;;;;;10.73;8.20;;;17.60;96.90;;;;;;4960098;28;20383;-84
2022/03/26 12:14:07;;;;;;;12.93;8.80;;;17.50;97.20;;;;;;4959242;28;20845;-84
2022/03/26 12:16:55;;;;;;;11.32;8.20;;;17.70;97.50;;;;;;4960631;28;20188;-87
2022/03/26 12:19:39;;;;;;;11.25;7.57;;;17.70;97.00;;;;;;4975452;28;20189;-87
2022/03/26 12:22:23;;;;;;;11.30;8.45;;;17.80;97.20;;;;;;4956220;28;21157;-86
2022/03/26 12:24:50;;;;;;;11.82;7.95;;;17.80;96.70;;;;;;4962943;28;20661;-86
2022/03/26 12:27:17;;;;;;;10.80;7.35;;;17.80;96.50;;;;;;4951089;28;20219;-84
2022/03/26 12:29:42;;;;;;;13.65;8.30;;;18.00;96.00;;;;;;4956179;28;20197;-84
2022/03/26 12:32:08;;;;;;;8.75;7.13;;;18.30;95.70;;;;;;4949794;28;20205;-85
2022/03/26 12:34:50;;;;;;;9.15;6.43;;;18.40;95.50;;;;;;4972581;28;20208;-83
2022/03/26 12:37:17;;;;;;;9.48;6.47;;;18.40;95.90;;;;;;4964207;28;20200;-82
2022/03/26 12:39:44;;;;;;;10.65;7.70;;;18.70;95.40;;;;;;4967732;28;20189;-86
2022/03/26 12:42:11;;;;;;;12.65;7.60;;;18.70;95.50;;;;;;4955765;28;20693;-84
2022/03/26 12:44:36;;;;;;;12.45;8.55;;;18.90;95.20;;;;;;4954732;28;20573;-84